sensor_id;sensor_type;location;lat;lon;timestamp;pressure;altitude;pressure_sealevel;temperature;humidity
26443;BME280;5563;52.296;6.806;2023-09-19T00:02:13;100504.91;;;14.44;100.00
26443;BME280;5563;52.296;6.806;2023-09-19T00:04:40;100506.28;;;14.30;100.00
26443;BME280;5563;52.296;6.806;2023-09-19T00:07:16;100522.63;;;14.37;100.00
26443;BME280;5563;52.296;6.806;2023-09-19T00:09:44;100543.59;;;14.41;100.00
26443;BME280;5563;52.296;6.806;2023-09-19T00:12:21;100528.75;;;14.29;100.00
26443;BME280;5563;52.296;6.806;2023-09-19T00:14:55;100516.25;;;14.20;100.00
26443;BME280;5563;52.296;6.806;2023-09-19T00:17:39;100537.31;;;14.33;100.00
26443;BME280;5563;52.296;6.806;2023-09-19T00:20:13;100546.88;;;14.35;100.00
26443;BME280;5563;52.296;6.806;2023-09-19T00:23:00;100521.91;;;14.17;100.00
26443;BME280;5563;52.296;6.806;2023-09-19T00:25:36;100536.50;;;14.23;100.00
26443;BME280;5563;52.296;6.806;2023-09-19T00:28:14;100545.72;;;14.20;99.97
26443;BME280;5563;52.296;6.806;2023-09-19T00:30:48;100565.59;;;14.27;99.79
26443;BME280;5563;52.296;6.806;2023-09-19T00:33:28;100543.66;;;14.14;99.74
26443;BME280;5563;52.296;6.806;2023-09-19T00:35:59;100562.34;;;14.24;99.75
26443;BME280;5563;52.296;6.806;2023-09-19T00:38:38;100547.34;;;14.13;100.00
26443;BME280;5563;52.296;6.806;2023-09-19T00:41:05;100548.31;;;14.12;100.00
26443;BME280;5563;52.296;6.806;2023-09-19T00:43:52;100557.75;;;14.16;100.00
26443;BME280;5563;52.296;6.806;2023-09-19T00:46:27;100574.63;;;14.26;99.82
26443;BME280;5563;52.296;6.806;2023-09-19T00:48:56;100561.97;;;14.19;100.00
26443;BME280;5563;52.296;6.806;2023-09-19T00:51:44;100555.06;;;14.16;99.91
26443;BME280;5563;52.296;6.806;2023-09-19T00:54:15;100577.19;;;14.28;99.80
26443;BME280;5563;52.296;6.806;2023-09-19T00:56:52;100578.00;;;14.28;99.97
26443;BME280;5563;52.296;6.806;2023-09-19T00:59:21;100556.09;;;14.15;100.00
26443;BME280;5563;52.296;6.806;2023-09-19T01:02:02;100563.81;;;14.18;99.62
26443;BME280;5563;52.296;6.806;2023-09-19T01:04:40;100568.31;;;14.18;99.31
26443;BME280;5563;52.296;6.806;2023-09-19T01:07:17;100588.31;;;14.23;99.37
26443;BME280;5563;52.296;6.806;2023-09-19T01:09:47;100590.16;;;14.23;99.07
26443;BME280;5563;52.296;6.806;2023-09-19T01:12:57;100595.81;;;14.20;98.87
26443;BME280;5563;52.296;6.806;2023-09-19T01:21:47;100584.78;;;14.05;98.89
26443;BME280;5563;52.296;6.806;2023-09-19T01:24:34;100590.84;;;14.07;99.39
26443;BME280;5563;52.296;6.806;2023-09-19T01:30:34;100609.44;;;14.08;98.13
26443;BME280;5563;52.296;6.806;2023-09-19T01:33:08;100596.81;;;14.01;97.81
26443;BME280;5563;52.296;6.806;2023-09-19T01:35:44;100606.22;;;14.05;97.68
26443;BME280;5563;52.296;6.806;2023-09-19T01:38:21;100610.63;;;14.06;97.94
26443;BME280;5563;52.296;6.806;2023-09-19T01:41:09;100614.28;;;14.05;97.77
26443;BME280;5563;52.296;6.806;2023-09-19T01:43:49;100597.56;;;13.93;97.51
26443;BME280;5563;52.296;6.806;2023-09-19T01:46:26;100621.66;;;14.03;97.69
26443;BME280;5563;52.296;6.806;2023-09-19T01:49:33;100620.63;;;14.04;97.74
26443;BME280;5563;52.296;6.806;2023-09-19T01:52:15;100611.38;;;13.98;98.71
26443;BME280;5563;52.296;6.806;2023-09-19T01:55:06;100603.38;;;13.89;98.84
26443;BME280;5563;52.296;6.806;2023-09-19T01:57:54;100605.63;;;13.93;99.14
26443;BME280;5563;52.296;6.806;2023-09-19T02:00:36;100594.78;;;13.85;99.90
26443;BME280;5563;52.296;6.806;2023-09-19T02:03:14;100584.69;;;13.79;99.72
26443;BME280;5563;52.296;6.806;2023-09-19T02:05:51;100600.03;;;13.87;99.91
26443;BME280;5563;52.296;6.806;2023-09-19T02:08:27;100603.53;;;13.87;100.00
26443;BME280;5563;52.296;6.806;2023-09-19T02:10:54;100610.75;;;13.87;100.00
26443;BME280;5563;52.296;6.806;2023-09-19T02:13:29;100602.28;;;13.82;100.00
26443;BME280;5563;52.296;6.806;2023-09-19T02:16:04;100611.72;;;13.86;100.00
26443;BME280;5563;52.296;6.806;2023-09-19T02:18:38;100618.63;;;13.88;100.00
26443;BME280;5563;52.296;6.806;2023-09-19T02:21:10;100612.72;;;13.85;100.00
26443;BME280;5563;52.296;6.806;2023-09-19T02:23:46;100611.50;;;13.79;100.00
26443;BME280;5563;52.296;6.806;2023-09-19T02:26:17;100625.28;;;13.84;100.00
26443;BME280;5563;52.296;6.806;2023-09-19T02:28:51;100612.94;;;13.74;100.00
26443;BME280;5563;52.296;6.806;2023-09-19T02:31:20;100614.22;;;13.70;100.00
26443;BME280;5563;52.296;6.806;2023-09-19T02:33:54;100619.69;;;13.78;100.00
26443;BME280;5563;52.296;6.806;2023-09-19T02:36:22;100634.31;;;13.83;100.00
26443;BME280;5563;52.296;6.806;2023-09-19T02:38:57;100638.75;;;13.92;100.00
26443;BME280;5563;52.296;6.806;2023-09-19T02:41:28;100639.59;;;13.93;100.00
26443;BME280;5563;52.296;6.806;2023-09-19T02:43:56;100622.28;;;13.87;100.00
26443;BME280;5563;52.296;6.806;2023-09-19T02:46:31;100617.63;;;13.89;100.00
26443;BME280;5563;52.296;6.806;2023-09-19T02:49:05;100597.97;;;13.71;100.00
26443;BME280;5563;52.296;6.806;2023-09-19T02:51:40;100608.97;;;13.78;100.00
26443;BME280;5563;52.296;6.806;2023-09-19T02:54:07;100613.47;;;13.77;100.00
26443;BME280;5563;52.296;6.806;2023-09-19T02:56:42;100632.63;;;13.82;100.00
26443;BME280;5563;52.296;6.806;2023-09-19T02:59:14;100637.59;;;13.77;100.00
26443;BME280;5563;52.296;6.806;2023-09-19T03:01:49;100636.81;;;13.67;100.00
26443;BME280;5563;52.296;6.806;2023-09-19T03:04:17;100651.44;;;13.73;100.00
26443;BME280;5563;52.296;6.806;2023-09-19T03:06:53;100631.47;;;13.58;100.00
26443;BME280;5563;52.296;6.806;2023-09-19T03:09:25;100641.31;;;13.67;100.00
26443;BME280;5563;52.296;6.806;2023-09-19T03:12:05;100630.94;;;13.54;100.00
26443;BME280;5563;52.296;6.806;2023-09-19T03:14:33;100653.84;;;13.66;100.00
26443;BME280;5563;52.296;6.806;2023-09-19T03:17:09;100627.00;;;13.49;100.00
26443;BME280;5563;52.296;6.806;2023-09-19T03:19:40;100626.84;;;13.50;100.00
26443;BME280;5563;52.296;6.806;2023-09-19T03:22:16;100632.91;;;13.52;100.00
26443;BME280;5563;52.296;6.806;2023-09-19T03:24:48;100638.13;;;13.54;100.00
26443;BME280;5563;52.296;6.806;2023-09-19T03:27:22;100658.50;;;13.64;100.00
26443;BME280;5563;52.296;6.806;2023-09-19T03:29:56;100660.38;;;13.64;100.00
26443;BME280;5563;52.296;6.806;2023-09-19T03:32:30;100663.88;;;13.64;100.00
26443;BME280;5563;52.296;6.806;2023-09-19T03:35:07;100653.75;;;13.58;100.00
26443;BME280;5563;52.296;6.806;2023-09-19T03:37:44;100638.72;;;13.48;100.00
26443;BME280;5563;52.296;6.806;2023-09-19T03:40:15;100666.00;;;13.61;100.00
26443;BME280;5563;52.296;6.806;2023-09-19T03:42:53;100636.63;;;13.42;100.00
26443;BME280;5563;52.296;6.806;2023-09-19T03:45:33;100660.63;;;13.61;100.00
26443;BME280;5563;52.296;6.806;2023-09-19T03:48:10;100663.47;;;13.59;100.00
26443;BME280;5563;52.296;6.806;2023-09-19T03:51:04;100657.13;;;13.60;100.00
26443;BME280;5563;52.296;6.806;2023-09-19T03:53:38;100660.78;;;13.59;100.00
26443;BME280;5563;52.296;6.806;2023-09-19T03:56:14;100652.06;;;13.57;99.86
26443;BME280;5563;52.296;6.806;2023-09-19T03:58:42;100669.84;;;13.58;99.88
26443;BME280;5563;52.296;6.806;2023-09-19T04:01:16;100634.25;;;13.39;99.95
26443;BME280;5563;52.296;6.806;2023-09-19T04:03:48;100642.69;;;13.44;99.59
26443;BME280;5563;52.296;6.806;2023-09-19T04:06:24;100627.63;;;13.33;99.50
26443;BME280;5563;52.296;6.806;2023-09-19T04:08:58;100659.00;;;13.50;99.44
26443;BME280;5563;52.296;6.806;2023-09-19T04:11:37;100627.09;;;13.30;99.33
26443;BME280;5563;52.296;6.806;2023-09-19T04:14:19;100615.69;;;13.28;98.98
26443;BME280;5563;52.296;6.806;2023-09-19T04:17:00;100652.69;;;13.42;99.38
26443;BME280;5563;52.296;6.806;2023-09-19T04:19:38;100645.09;;;13.37;99.49
26443;BME280;5563;52.296;6.806;2023-09-19T04:22:26;100652.84;;;13.31;99.14
26443;BME280;5563;52.296;6.806;2023-09-19T04:24:53;100637.13;;;13.18;99.20
26443;BME280;5563;52.296;6.806;2023-09-19T04:27:41;100643.94;;;13.03;98.85
26443;BME280;5563;52.296;6.806;2023-09-19T04:30:12;100683.31;;;13.20;98.61
26443;BME280;5563;52.296;6.806;2023-09-19T04:33:16;100693.34;;;13.18;98.58
26443;BME280;5563;52.296;6.806;2023-09-19T04:35:56;100698.84;;;13.17;98.71
26443;BME280;5563;52.296;6.806;2023-09-19T04:38:51;100686.16;;;12.99;98.69
26443;BME280;5563;52.296;6.806;2023-09-19T04:41:18;100685.47;;;12.97;98.57
26443;BME280;5563;52.296;6.806;2023-09-19T04:43:55;100695.31;;;12.97;99.07
26443;BME280;5563;52.296;6.806;2023-09-19T04:46:23;100686.47;;;12.87;98.86
26443;BME280;5563;52.296;6.806;2023-09-19T04:48:59;100697.00;;;12.88;98.50
26443;BME280;5563;52.296;6.806;2023-09-19T04:51:41;100707.97;;;12.95;98.43
26443;BME280;5563;52.296;6.806;2023-09-19T04:54:20;100688.41;;;12.75;98.00
26443;BME280;5563;52.296;6.806;2023-09-19T04:56:50;100710.69;;;12.85;97.87
26443;BME280;5563;52.296;6.806;2023-09-19T04:59:24;100711.66;;;12.84;98.29
26443;BME280;5563;52.296;6.806;2023-09-19T05:01:58;100729.41;;;12.95;97.48
26443;BME280;5563;52.296;6.806;2023-09-19T05:04:40;100720.41;;;12.96;97.29
26443;BME280;5563;52.296;6.806;2023-09-19T05:07:15;100712.91;;;12.90;97.16
26443;BME280;5563;52.296;6.806;2023-09-19T05:09:50;100715.03;;;12.96;96.46
26443;BME280;5563;52.296;6.806;2023-09-19T05:12:32;100730.25;;;12.95;96.28
26443;BME280;5563;52.296;6.806;2023-09-19T05:15:06;100716.59;;;12.89;95.92
26443;BME280;5563;52.296;6.806;2023-09-19T05:17:55;100709.13;;;12.83;96.02
26443;BME280;5563;52.296;6.806;2023-09-19T05:20:25;100705.88;;;12.79;95.41
26443;BME280;5563;52.296;6.806;2023-09-19T05:23:21;100709.72;;;12.77;95.10
26443;BME280;5563;52.296;6.806;2023-09-19T05:25:55;100716.19;;;12.84;94.29
26443;BME280;5563;52.296;6.806;2023-09-19T05:28:32;100742.09;;;12.93;93.92
26443;BME280;5563;52.296;6.806;2023-09-19T05:31:01;100734.06;;;12.93;93.68
26443;BME280;5563;52.296;6.806;2023-09-19T05:33:38;100717.44;;;12.80;94.04
26443;BME280;5563;52.296;6.806;2023-09-19T05:36:05;100744.06;;;12.91;93.63
26443;BME280;5563;52.296;6.806;2023-09-19T05:38:43;100724.47;;;12.81;93.13
26443;BME280;5563;52.296;6.806;2023-09-19T05:41:11;100718.56;;;12.77;93.27
26443;BME280;5563;52.296;6.806;2023-09-19T05:43:49;100753.06;;;12.90;93.00
26443;BME280;5563;52.296;6.806;2023-09-19T05:46:17;100717.28;;;12.72;92.83
26443;BME280;5563;52.296;6.806;2023-09-19T05:48:51;100712.78;;;12.72;92.44
26443;BME280;5563;52.296;6.806;2023-09-19T05:51:19;100757.31;;;12.92;92.66
26443;BME280;5563;52.296;6.806;2023-09-19T05:53:56;100736.59;;;12.85;92.88
26443;BME280;5563;52.296;6.806;2023-09-19T05:56:24;100755.91;;;12.98;92.80
26443;BME280;5563;52.296;6.806;2023-09-19T05:58:58;100744.47;;;12.96;92.62
26443;BME280;5563;52.296;6.806;2023-09-19T06:01:28;100734.63;;;12.96;92.31
26443;BME280;5563;52.296;6.806;2023-09-19T06:04:02;100727.56;;;12.95;92.23
26443;BME280;5563;52.296;6.806;2023-09-19T06:06:40;100705.75;;;12.90;91.75
26443;BME280;5563;52.296;6.806;2023-09-19T06:09:17;100728.31;;;13.07;91.14
26443;BME280;5563;52.296;6.806;2023-09-19T06:11:51;100714.22;;;13.05;91.39
26443;BME280;5563;52.296;6.806;2023-09-19T06:14:36;100722.38;;;13.13;90.92
26443;BME280;5563;52.296;6.806;2023-09-19T06:17:11;100745.31;;;13.25;91.58
26443;BME280;5563;52.296;6.806;2023-09-19T06:19:41;100717.16;;;13.12;91.22
26443;BME280;5563;52.296;6.806;2023-09-19T06:22:20;100728.16;;;13.09;91.29
26443;BME280;5563;52.296;6.806;2023-09-19T06:24:48;100758.84;;;13.24;90.84
26443;BME280;5563;52.296;6.806;2023-09-19T06:27:25;100762.13;;;13.18;90.53
26443;BME280;5563;52.296;6.806;2023-09-19T06:29:52;100721.25;;;12.96;90.77
26443;BME280;5563;52.296;6.806;2023-09-19T06:32:28;100769.59;;;13.14;91.29
26443;BME280;5563;52.296;6.806;2023-09-19T06:34:55;100778.44;;;13.15;91.20
26443;BME280;5563;52.296;6.806;2023-09-19T06:37:30;100755.50;;;13.02;91.24
26443;BME280;5563;52.296;6.806;2023-09-19T06:40:14;100782.81;;;13.16;91.27
26443;BME280;5563;52.296;6.806;2023-09-19T06:42:51;100750.69;;;12.96;91.20
26443;BME280;5563;52.296;6.806;2023-09-19T06:45:32;100766.59;;;13.08;91.88
26443;BME280;5563;52.296;6.806;2023-09-19T06:48:06;100758.88;;;13.05;91.86
26443;BME280;5563;52.296;6.806;2023-09-19T06:50:45;100786.63;;;13.23;91.66
26443;BME280;5563;52.296;6.806;2023-09-19T06:53:21;100754.09;;;13.08;91.47
26443;BME280;5563;52.296;6.806;2023-09-19T06:55:51;100770.56;;;13.23;91.53
26443;BME280;5563;52.296;6.806;2023-09-19T06:58:25;100772.66;;;13.29;91.72
26443;BME280;5563;52.296;6.806;2023-09-19T07:00:52;100760.97;;;13.30;91.20
26443;BME280;5563;52.296;6.806;2023-09-19T07:03:30;100781.38;;;13.50;90.74
26443;BME280;5563;52.296;6.806;2023-09-19T07:06:00;100796.28;;;13.62;90.55
26443;BME280;5563;52.296;6.806;2023-09-19T07:08:33;100758.81;;;13.52;90.65
26443;BME280;5563;52.296;6.806;2023-09-19T07:11:07;100758.25;;;13.58;90.03
26443;BME280;5563;52.296;6.806;2023-09-19T07:13:48;100742.00;;;13.60;90.22
26443;BME280;5563;52.296;6.806;2023-09-19T07:16:25;100754.09;;;13.73;90.02
26443;BME280;5563;52.296;6.806;2023-09-19T07:18:57;100755.75;;;13.84;90.02
26443;BME280;5563;52.296;6.806;2023-09-19T07:21:34;100777.56;;;13.98;89.82
26443;BME280;5563;52.296;6.806;2023-09-19T07:24:11;100758.00;;;13.88;89.94
26443;BME280;5563;52.296;6.806;2023-09-19T07:26:51;100787.56;;;14.06;89.31
26443;BME280;5563;52.296;6.806;2023-09-19T07:29:20;100788.97;;;14.10;89.21
26443;BME280;5563;52.296;6.806;2023-09-19T07:31:54;100799.22;;;14.15;89.32
26443;BME280;5563;52.296;6.806;2023-09-19T07:34:21;100751.28;;;14.02;89.37
26443;BME280;5563;52.296;6.806;2023-09-19T07:37:01;100750.41;;;14.11;89.57
26443;BME280;5563;52.296;6.806;2023-09-19T07:39:29;100764.91;;;14.28;88.95
26443;BME280;5563;52.296;6.806;2023-09-19T07:41:58;100780.34;;;14.43;89.31
26443;BME280;5563;52.296;6.806;2023-09-19T07:44:32;100786.78;;;14.50;89.23
26443;BME280;5563;52.296;6.806;2023-09-19T07:47:00;100781.81;;;14.55;88.89
26443;BME280;5563;52.296;6.806;2023-09-19T07:49:43;100805.22;;;14.63;88.91
26443;BME280;5563;52.296;6.806;2023-09-19T07:52:16;100754.75;;;14.49;88.78
26443;BME280;5563;52.296;6.806;2023-09-19T07:54:51;100776.84;;;14.60;88.28
26443;BME280;5563;52.296;6.806;2023-09-19T07:57:28;100795.09;;;14.74;88.59
26443;BME280;5563;52.296;6.806;2023-09-19T07:59:56;100796.19;;;14.81;88.82
26443;BME280;5563;52.296;6.806;2023-09-19T08:02:24;100762.44;;;14.61;88.29
26443;BME280;5563;52.296;6.806;2023-09-19T08:04:58;100796.34;;;14.80;88.03
26443;BME280;5563;52.296;6.806;2023-09-19T08:07:30;100810.94;;;14.95;88.02
26443;BME280;5563;52.296;6.806;2023-09-19T08:10:07;100775.56;;;14.82;87.48
26443;BME280;5563;52.296;6.806;2023-09-19T08:12:48;100800.91;;;14.97;87.45
26443;BME280;5563;52.296;6.806;2023-09-19T08:15:46;100785.53;;;14.89;88.01
26443;BME280;5563;52.296;6.806;2023-09-19T08:18:15;100829.75;;;15.12;87.33
26443;BME280;5563;52.296;6.806;2023-09-19T08:20:51;100819.53;;;15.16;87.08
26443;BME280;5563;52.296;6.806;2023-09-19T08:23:19;100821.22;;;15.17;86.43
26443;BME280;5563;52.296;6.806;2023-09-19T08:25:57;100789.69;;;15.01;86.58
26443;BME280;5563;52.296;6.806;2023-09-19T08:28:25;100814.22;;;15.24;86.69
26443;BME280;5563;52.296;6.806;2023-09-19T08:31:05;100790.16;;;15.14;86.27
26443;BME280;5563;52.296;6.806;2023-09-19T08:33:47;100813.50;;;15.40;85.96
26443;BME280;5563;52.296;6.806;2023-09-19T08:36:23;100785.22;;;15.28;85.63
26443;BME280;5563;52.296;6.806;2023-09-19T08:38:59;100827.13;;;15.56;85.77
26443;BME280;5563;52.296;6.806;2023-09-19T08:41:33;100822.97;;;15.61;85.08
26443;BME280;5563;52.296;6.806;2023-09-19T08:44:11;100801.56;;;15.52;84.29
26443;BME280;5563;52.296;6.806;2023-09-19T08:46:47;100828.72;;;15.66;84.55
26443;BME280;5563;52.296;6.806;2023-09-19T08:52:20;100819.13;;;15.89;84.71
26443;BME280;5563;52.296;6.806;2023-09-19T08:54:59;100824.47;;;16.07;84.58
26443;BME280;5563;52.296;6.806;2023-09-19T08:57:43;100820.97;;;16.14;82.95
26443;BME280;5563;52.296;6.806;2023-09-19T09:00:16;100782.47;;;16.14;81.94
26443;BME280;5563;52.296;6.806;2023-09-19T09:02:56;100798.19;;;16.35;82.16
26443;BME280;5563;52.296;6.806;2023-09-19T09:05:36;100798.38;;;16.41;80.81
26443;BME280;5563;52.296;6.806;2023-09-19T09:08:08;100775.13;;;16.32;80.63
26443;BME280;5563;52.296;6.806;2023-09-19T09:10:47;100776.25;;;16.47;79.89
26443;BME280;5563;52.296;6.806;2023-09-19T09:13:18;100781.66;;;16.55;80.24
26443;BME280;5563;52.296;6.806;2023-09-19T09:15:57;100789.75;;;16.63;78.28
26443;BME280;5563;52.296;6.806;2023-09-19T09:18:38;100803.75;;;16.75;78.31
26443;BME280;5563;52.296;6.806;2023-09-19T09:21:15;100778.81;;;16.73;79.02
26443;BME280;5563;52.296;6.806;2023-09-19T09:23:46;100778.84;;;16.81;77.58
26443;BME280;5563;52.296;6.806;2023-09-19T09:29:11;100800.13;;;17.08;76.72
26443;BME280;5563;52.296;6.806;2023-09-19T09:31:47;100812.41;;;17.10;76.41
26443;BME280;5563;52.296;6.806;2023-09-19T09:34:17;100787.78;;;16.89;75.38
26443;BME280;5563;52.296;6.806;2023-09-19T09:36:55;100822.31;;;17.10;77.52
26443;BME280;5563;52.296;6.806;2023-09-19T09:39:31;100792.88;;;17.08;76.71
26443;BME280;5563;52.296;6.806;2023-09-19T09:42:06;100818.84;;;17.25;76.40
26443;BME280;5563;52.296;6.806;2023-09-19T09:44:37;100786.50;;;17.25;77.24
26443;BME280;5563;52.296;6.806;2023-09-19T09:47:43;100777.91;;;17.30;74.97
26443;BME280;5563;52.296;6.806;2023-09-19T09:50:24;100795.25;;;17.44;76.28
26443;BME280;5563;52.296;6.806;2023-09-19T09:53:02;100771.69;;;17.54;75.73
26443;BME280;5563;52.296;6.806;2023-09-19T09:55:57;100779.06;;;17.84;74.89
26443;BME280;5563;52.296;6.806;2023-09-19T09:58:37;100779.91;;;17.76;73.52
26443;BME280;5563;52.296;6.806;2023-09-19T10:01:10;100792.00;;;17.96;73.52
26443;BME280;5563;52.296;6.806;2023-09-19T10:03:57;100775.41;;;18.15;72.27
26443;BME280;5563;52.296;6.806;2023-09-19T10:06:25;100761.31;;;18.36;71.91
26443;BME280;5563;52.296;6.806;2023-09-19T10:09:05;100768.88;;;18.49;69.88
26443;BME280;5563;52.296;6.806;2023-09-19T10:11:48;100790.97;;;18.52;70.15
26443;BME280;5563;52.296;6.806;2023-09-19T10:14:43;100753.84;;;18.15;69.90
26443;BME280;5563;52.296;6.806;2023-09-19T10:17:18;100782.69;;;18.54;68.39
26443;BME280;5563;52.296;6.806;2023-09-19T10:19:55;100761.47;;;18.51;68.35
26443;BME280;5563;52.296;6.806;2023-09-19T10:22:28;100763.47;;;18.57;67.56
26443;BME280;5563;52.296;6.806;2023-09-19T10:25:05;100791.47;;;18.86;68.31
26443;BME280;5563;52.296;6.806;2023-09-19T10:27:37;100764.16;;;18.81;68.39
26443;BME280;5563;52.296;6.806;2023-09-19T10:30:14;100782.47;;;18.94;66.59
26443;BME280;5563;52.296;6.806;2023-09-19T10:32:48;100759.63;;;18.74;66.63
26443;BME280;5563;52.296;6.806;2023-09-19T10:35:38;100783.03;;;18.59;66.95
26443;BME280;5563;52.296;6.806;2023-09-19T10:38:18;100775.19;;;18.33;67.18
26443;BME280;5563;52.296;6.806;2023-09-19T10:40:57;100781.25;;;18.27;67.65
26443;BME280;5563;52.296;6.806;2023-09-19T10:43:32;100796.78;;;18.33;66.69
26443;BME280;5563;52.296;6.806;2023-09-19T10:46:12;100758.13;;;18.32;65.58
26443;BME280;5563;52.296;6.806;2023-09-19T10:48:40;100793.84;;;18.51;64.84
26443;BME280;5563;52.296;6.806;2023-09-19T10:51:26;100763.22;;;18.27;64.26
26443;BME280;5563;52.296;6.806;2023-09-19T10:54:16;100765.06;;;18.35;66.38
26443;BME280;5563;52.296;6.806;2023-09-19T10:56:51;100763.38;;;18.34;64.37
26443;BME280;5563;52.296;6.806;2023-09-19T10:59:21;100790.19;;;18.44;64.65
26443;BME280;5563;52.296;6.806;2023-09-19T11:01:56;100760.94;;;18.55;64.36
26443;BME280;5563;52.296;6.806;2023-09-19T11:04:38;100788.97;;;18.85;64.16
26443;BME280;5563;52.296;6.806;2023-09-19T11:07:15;100764.91;;;18.67;64.08
26443;BME280;5563;52.296;6.806;2023-09-19T11:09:44;100768.84;;;18.87;64.16
26443;BME280;5563;52.296;6.806;2023-09-19T11:21:38;100749.63;;;18.82;63.52
26443;BME280;5563;52.296;6.806;2023-09-19T11:24:27;100775.53;;;18.99;64.45
26443;BME280;5563;52.296;6.806;2023-09-19T11:27:16;100747.84;;;18.75;64.25
26443;BME280;5563;52.296;6.806;2023-09-19T11:30:26;100759.22;;;18.85;65.02
26443;BME280;5563;52.296;6.806;2023-09-19T11:33:16;100768.19;;;19.08;65.05
26443;BME280;5563;52.296;6.806;2023-09-19T11:36:16;100755.16;;;19.11;63.49
26443;BME280;5563;52.296;6.806;2023-09-19T11:46:33;100738.47;;;19.08;65.11
26443;BME280;5563;52.296;6.806;2023-09-19T11:49:32;100718.34;;;18.88;64.30
26443;BME280;5563;52.296;6.806;2023-09-19T11:52:21;100736.72;;;18.92;64.46
26443;BME280;5563;52.296;6.806;2023-09-19T11:55:00;100706.38;;;18.60;65.40
26443;BME280;5563;52.296;6.806;2023-09-19T11:57:31;100704.88;;;18.57;65.40
26443;BME280;5563;52.296;6.806;2023-09-19T12:00:17;100710.34;;;18.72;66.24
26443;BME280;5563;52.296;6.806;2023-09-19T12:02:47;100704.06;;;18.79;66.31
26443;BME280;5563;52.296;6.806;2023-09-19T12:05:30;100705.50;;;18.90;65.52
26443;BME280;5563;52.296;6.806;2023-09-19T12:08:00;100705.72;;;18.80;65.36
26443;BME280;5563;52.296;6.806;2023-09-19T12:11:05;100713.19;;;18.78;66.40
26443;BME280;5563;52.296;6.806;2023-09-19T12:13:42;100717.19;;;18.82;66.01
26443;BME280;5563;52.296;6.806;2023-09-19T12:16:23;100732.34;;;18.91;65.78
26443;BME280;5563;52.296;6.806;2023-09-19T12:18:51;100736.28;;;18.81;65.49
26443;BME280;5563;52.296;6.806;2023-09-19T12:21:30;100740.44;;;18.69;66.54
26443;BME280;5563;52.296;6.806;2023-09-19T12:24:04;100734.06;;;18.62;66.94
26443;BME280;5563;52.296;6.806;2023-09-19T12:26:45;100714.78;;;18.34;66.83
26443;BME280;5563;52.296;6.806;2023-09-19T12:29:20;100735.19;;;18.37;66.56
26443;BME280;5563;52.296;6.806;2023-09-19T12:31:56;100739.00;;;18.50;67.40
26443;BME280;5563;52.296;6.806;2023-09-19T12:34:33;100697.72;;;18.42;66.45
26443;BME280;5563;52.296;6.806;2023-09-19T12:37:15;100731.66;;;18.89;67.06
26443;BME280;5563;52.296;6.806;2023-09-19T12:40:06;100709.56;;;19.31;65.11
26443;BME280;5563;52.296;6.806;2023-09-19T12:43:04;100713.97;;;19.47;64.46
26443;BME280;5563;52.296;6.806;2023-09-19T12:45:35;100719.97;;;19.57;64.38
26443;BME280;5563;52.296;6.806;2023-09-19T12:48:23;100681.75;;;19.60;63.62
26443;BME280;5563;52.296;6.806;2023-09-19T12:51:04;100693.56;;;19.44;62.63
26443;BME280;5563;52.296;6.806;2023-09-19T12:53:44;100694.22;;;19.31;63.39
26443;BME280;5563;52.296;6.806;2023-09-19T12:56:19;100692.84;;;19.27;63.62
26443;BME280;5563;52.296;6.806;2023-09-19T12:58:57;100695.78;;;19.41;63.38
26443;BME280;5563;52.296;6.806;2023-09-19T13:01:40;100696.00;;;19.68;61.92
26443;BME280;5563;52.296;6.806;2023-09-19T13:04:21;100675.56;;;19.80;61.67
26443;BME280;5563;52.296;6.806;2023-09-19T13:06:56;100680.41;;;19.99;61.82
26443;BME280;5563;52.296;6.806;2023-09-19T13:09:34;100657.56;;;19.87;60.68
26443;BME280;5563;52.296;6.806;2023-09-19T13:12:02;100714.41;;;20.16;60.46
26443;BME280;5563;52.296;6.806;2023-09-19T13:14:43;100689.56;;;19.84;59.33
26443;BME280;5563;52.296;6.806;2023-09-19T13:17:20;100704.41;;;19.73;59.88
26443;BME280;5563;52.296;6.806;2023-09-19T13:19:59;100691.81;;;19.28;60.18
26443;BME280;5563;52.296;6.806;2023-09-19T13:22:43;100688.78;;;19.09;61.50
26443;BME280;5563;52.296;6.806;2023-09-19T13:25:28;100722.34;;;19.14;62.99
26443;BME280;5563;52.296;6.806;2023-09-19T13:27:57;100722.16;;;19.01;63.63
26443;BME280;5563;52.296;6.806;2023-09-19T13:30:40;100667.81;;;18.74;63.98
26443;BME280;5563;52.296;6.806;2023-09-19T13:33:20;100686.78;;;18.66;63.21
26443;BME280;5563;52.296;6.806;2023-09-19T13:36:05;100664.91;;;18.53;64.37
26443;BME280;5563;52.296;6.806;2023-09-19T13:38:43;100671.50;;;18.50;63.58
26443;BME280;5563;52.296;6.806;2023-09-19T13:41:14;100693.38;;;18.63;64.81
26443;BME280;5563;52.296;6.806;2023-09-19T13:43:53;100656.72;;;18.38;64.46
26443;BME280;5563;52.296;6.806;2023-09-19T13:46:22;100683.53;;;18.48;64.49
26443;BME280;5563;52.296;6.806;2023-09-19T13:49:00;100668.88;;;18.42;65.22
26443;BME280;5563;52.296;6.806;2023-09-19T13:51:36;100677.81;;;18.43;65.62
26443;BME280;5563;52.296;6.806;2023-09-19T13:54:19;100699.41;;;18.43;65.72
26443;BME280;5563;52.296;6.806;2023-09-19T13:56:48;100670.75;;;18.33;65.81
26443;BME280;5563;52.296;6.806;2023-09-19T13:59:25;100683.88;;;18.37;65.56
26443;BME280;5563;52.296;6.806;2023-09-19T14:02:03;100698.22;;;18.45;65.62
26443;BME280;5563;52.296;6.806;2023-09-19T14:04:31;100667.38;;;18.31;65.41
26443;BME280;5563;52.296;6.806;2023-09-19T14:07:11;100693.78;;;18.52;65.60
26443;BME280;5563;52.296;6.806;2023-09-19T14:09:46;100668.72;;;18.36;64.60
26443;BME280;5563;52.296;6.806;2023-09-19T14:12:25;100684.38;;;18.48;65.07
26443;BME280;5563;52.296;6.806;2023-09-19T14:15:11;100690.38;;;18.58;64.87
26443;BME280;5563;52.296;6.806;2023-09-19T14:17:54;100696.78;;;18.57;65.27
26443;BME280;5563;52.296;6.806;2023-09-19T14:20:30;100661.28;;;18.38;65.43
26443;BME280;5563;52.296;6.806;2023-09-19T14:23:09;100662.84;;;18.32;65.66